sensor_id;sensor_type;location;lat;lon;timestamp;pressure;altitude;pressure_sealevel;temperature;humidity
26915;BME280;14480;52.608;13.416;2023-05-25T08:28:46;144823.25;;;3.42;74.13
26915;BME280;14480;52.608;13.416;2023-05-25T08:33:49;144921.84;;;3.82;72.45
26915;BME280;14480;52.608;13.416;2023-05-25T08:38:53;144876.91;;;3.64;73.80
26915;BME280;14480;52.608;13.416;2023-05-25T08:43:58;144779.56;;;3.24;75.78
26915;BME280;14480;52.608;13.416;2023-05-25T08:49:08;144846.97;;;3.51;75.96
26915;BME280;14480;52.608;13.416;2023-05-25T08:54:12;144968.00;;;4.01;74.51
26915;BME280;14480;52.608;13.416;2023-05-25T08:59:27;145000.47;;;4.14;68.82
26915;BME280;14480;52.608;13.416;2023-05-25T09:04:33;145051.66;;;4.35;68.76
26915;BME280;14480;52.608;13.416;2023-05-25T09:09:37;145131.59;;;4.67;67.80
26915;BME280;14480;52.608;13.416;2023-05-25T09:14:42;145215.28;;;5.02;66.35
26915;BME280;14480;52.608;13.416;2023-05-25T09:19:49;145249.00;;;5.15;64.28
26915;BME280;14480;52.608;13.416;2023-05-25T09:24:53;144983.00;;;4.07;66.75
26915;BME280;14480;52.608;13.416;2023-05-25T09:29:58;144929.34;;;3.85;67.45
26915;BME280;14480;52.608;13.416;2023-05-25T09:35:07;145067.91;;;4.42;66.03
26915;BME280;14480;52.608;13.416;2023-05-25T09:40:11;145286.47;;;5.31;66.06
26915;BME280;14480;52.608;13.416;2023-05-25T09:45:19;145204.00;;;4.97;65.56
26915;BME280;14480;52.608;13.416;2023-05-25T09:50:27;144974.25;;;4.03;69.16
26915;BME280;14480;52.608;13.416;2023-05-25T09:55:31;145056.63;;;4.37;68.44
26915;BME280;14480;52.608;13.416;2023-05-25T10:00:55;145162.81;;;4.80;68.43
26915;BME280;14480;52.608;13.416;2023-05-25T10:05:59;145087.84;;;4.50;69.90
26915;BME280;14480;52.608;13.416;2023-05-25T10:11:03;145106.59;;;4.57;67.30
26915;BME280;14480;52.608;13.416;2023-05-25T10:16:09;145070.41;;;4.43;67.47
26915;BME280;14480;52.608;13.416;2023-05-25T10:21:21;144829.47;;;3.44;69.65
26915;BME280;14480;52.608;13.416;2023-05-25T10:26:25;145087.84;;;4.50;70.02
26915;BME280;14480;52.608;13.416;2023-05-25T10:31:31;145264.03;;;5.21;66.10
26915;BME280;14480;52.608;13.416;2023-05-25T10:36:38;144825.75;;;3.43;71.48
26915;BME280;14480;52.608;13.416;2023-05-25T10:41:43;145056.63;;;4.37;69.93
26915;BME280;14480;52.608;13.416;2023-05-25T10:46:47;145057.88;;;4.37;69.25
26915;BME280;14480;52.608;13.416;2023-05-25T10:51:56;145149.09;;;4.75;68.24
26915;BME280;14480;52.608;13.416;2023-05-25T10:57:07;145181.56;;;4.88;67.04
26915;BME280;14480;52.608;13.416;2023-05-25T11:02:13;145220.28;;;5.04;68.10
26915;BME280;14480;52.608;13.416;2023-05-25T11:07:17;144960.53;;;3.98;69.93
26915;BME280;14480;52.608;13.416;2023-05-25T11:12:24;145194.03;;;4.93;68.77
26915;BME280;14480;52.608;13.416;2023-05-25T11:17:32;145216.53;;;5.02;67.05
26915;BME280;14480;52.608;13.416;2023-05-25T11:22:37;145132.84;;;4.68;68.04
26915;BME280;14480;52.608;13.416;2023-05-25T11:27:44;145031.66;;;4.27;69.36
26915;BME280;14480;52.608;13.416;2023-05-25T11:32:49;145109.09;;;4.58;69.37
26915;BME280;14480;52.608;13.416;2023-05-25T11:37:53;145249.00;;;5.15;70.36
26915;BME280;14480;52.608;13.416;2023-05-25T11:42:56;144973.00;;;4.03;73.72
26915;BME280;14480;52.608;13.416;2023-05-25T11:48:06;145307.72;;;5.39;71.42
26915;BME280;14480;52.608;13.416;2023-05-25T11:53:17;145155.31;;;4.77;73.01
26915;BME280;14480;52.608;13.416;2023-05-25T11:58:23;145225.25;;;5.06;72.83
26915;BME280;14480;52.608;13.416;2023-05-25T12:03:29;145102.88;;;4.56;73.12
26915;BME280;14480;52.608;13.416;2023-05-25T12:08:36;144874.41;;;3.63;76.30
26915;BME280;14480;52.608;13.416;2023-05-25T12:13:41;144772.09;;;3.21;77.19
26915;BME280;14480;52.608;13.416;2023-05-25T12:18:47;144659.84;;;2.75;78.68
26915;BME280;14480;52.608;13.416;2023-05-25T12:23:51;144737.16;;;3.07;79.63
26915;BME280;14480;52.608;13.416;2023-05-25T12:28:59;144870.69;;;3.61;78.64
26915;BME280;14480;52.608;13.416;2023-05-25T12:34:06;144765.88;;;3.18;80.26
26915;BME280;14480;52.608;13.416;2023-05-25T12:39:10;144644.91;;;2.69;79.91
26915;BME280;14480;52.608;13.416;2023-05-25T12:44:15;144477.84;;;2.01;81.85
26915;BME280;14480;52.608;13.416;2023-05-25T12:49:26;144667.34;;;2.78;80.44
26915;BME280;14480;52.608;13.416;2023-05-25T12:54:37;144750.88;;;3.12;78.48
26915;BME280;14480;52.608;13.416;2023-05-25T12:59:42;144851.94;;;3.54;77.22
26915;BME280;14480;52.608;13.416;2023-05-25T13:04:47;144929.34;;;3.85;74.57
26915;BME280;14480;52.608;13.416;2023-05-25T13:09:50;145061.63;;;4.39;74.61
26915;BME280;14480;52.608;13.416;2023-05-25T13:14:55;145064.16;;;4.40;75.03
26915;BME280;14480;52.608;13.416;2023-05-25T13:19:59;144890.59;;;3.69;77.30
26915;BME280;14480;52.608;13.416;2023-05-25T13:25:06;145012.97;;;4.19;78.39
26915;BME280;14480;52.608;13.416;2023-05-25T13:30:10;144975.47;;;4.04;78.68
26915;BME280;14480;52.608;13.416;2023-05-25T13:35:15;144915.56;;;3.79;78.47
26915;BME280;14480;52.608;13.416;2023-05-25T13:40:25;145032.91;;;4.27;80.89
26915;BME280;14480;52.608;13.416;2023-05-25T13:45:28;145000.47;;;4.14;77.75
26915;BME280;14480;52.608;13.416;2023-05-25T13:50:34;145092.88;;;4.52;79.29
26915;BME280;14480;52.608;13.416;2023-05-25T13:55:38;145265.28;;;5.22;73.52
26915;BME280;14480;52.608;13.416;2023-05-25T14:00:41;145299.00;;;5.36;71.51
26915;BME280;14480;52.608;13.416;2023-05-25T14:05:47;145054.16;;;4.36;74.06
26915;BME280;14480;52.608;13.416;2023-05-25T14:10:51;145338.97;;;5.52;74.07
26915;BME280;14480;52.608;13.416;2023-05-25T14:15:54;145262.78;;;5.21;73.40
26915;BME280;14480;52.608;13.416;2023-05-25T14:20:59;145305.22;;;5.38;70.81
26915;BME280;14480;52.608;13.416;2023-05-25T14:26:03;145347.69;;;5.55;69.19
26915;BME280;14480;52.608;13.416;2023-05-25T14:31:06;145333.97;;;5.50;68.96
26915;BME280;14480;52.608;13.416;2023-05-25T14:36:11;145170.28;;;4.83;71.27
26915;BME280;14480;52.608;13.416;2023-05-25T14:41:15;145056.63;;;4.37;73.37
26915;BME280;14480;52.608;13.416;2023-05-25T14:46:21;144860.66;;;3.57;75.05
26915;BME280;14480;52.608;13.416;2023-05-25T14:51:26;144953.06;;;3.95;74.74
26915;BME280;14480;52.608;13.416;2023-05-25T14:56:29;144849.47;;;3.53;76.16
26915;BME280;14480;52.608;13.416;2023-05-25T15:01:33;144870.69;;;3.61;76.26
26915;BME280;14480;52.608;13.416;2023-05-25T15:06:39;144777.06;;;3.23;77.25
26915;BME280;14480;52.608;13.416;2023-05-25T15:11:47;144831.97;;;3.45;76.45
26915;BME280;14480;52.608;13.416;2023-05-25T15:16:50;144752.16;;;3.13;77.00
26915;BME280;14480;52.608;13.416;2023-05-25T15:21:55;144722.19;;;3.01;77.13
26915;BME280;14480;52.608;13.416;2023-05-25T15:26:58;144710.97;;;2.96;77.12
26915;BME280;14480;52.608;13.416;2023-05-25T15:32:05;144740.91;;;3.08;77.04
26915;BME280;14480;52.608;13.416;2023-05-25T15:37:21;144722.19;;;3.01;77.42
26915;BME280;14480;52.608;13.416;2023-05-25T15:42:28;144851.94;;;3.54;76.07
26915;BME280;14480;52.608;13.416;2023-05-25T15:47:41;144908.09;;;3.76;74.65
26915;BME280;14480;52.608;13.416;2023-05-25T15:52:49;144900.63;;;3.73;75.71
26915;BME280;14480;52.608;13.416;2023-05-25T15:57:52;145009.22;;;4.18;73.38
26915;BME280;14480;52.608;13.416;2023-05-25T16:02:58;144871.91;;;3.62;73.68
26915;BME280;14480;52.608;13.416;2023-05-25T16:08:29;144851.94;;;3.54;73.51
26915;BME280;14480;52.608;13.416;2023-05-25T16:13:32;144885.63;;;3.67;72.54
26915;BME280;14480;52.608;13.416;2023-05-25T16:18:36;144868.19;;;3.60;71.74
26915;BME280;14480;52.608;13.416;2023-05-25T16:24:06;144849.47;;;3.53;74.25
26915;BME280;14480;52.608;13.416;2023-05-25T16:29:11;144769.59;;;3.20;74.54
26915;BME280;14480;52.608;13.416;2023-05-25T16:34:14;144652.38;;;2.72;76.26
26915;BME280;14480;52.608;13.416;2023-05-25T16:39:20;144657.34;;;2.74;77.39
26915;BME280;14480;52.608;13.416;2023-05-25T16:44:24;144602.47;;;2.52;79.16
26915;BME280;14480;52.608;13.416;2023-05-25T16:49:28;144580.03;;;2.43;78.69
26915;BME280;14480;52.608;13.416;2023-05-25T16:54:33;144495.25;;;2.08;80.48
26915;BME280;14480;52.608;13.416;2023-05-25T16:59:36;144477.84;;;2.01;80.54
26915;BME280;14480;52.608;13.416;2023-05-25T17:04:40;144459.13;;;1.93;79.90
26915;BME280;14480;52.608;13.416;2023-05-25T17:09:45;144441.72;;;1.86;78.80
26915;BME280;14480;52.608;13.416;2023-05-25T17:14:51;144452.91;;;1.91;78.50
26915;BME280;14480;52.608;13.416;2023-05-25T17:19:56;144442.97;;;1.87;79.55
26915;BME280;14480;52.608;13.416;2023-05-25T17:25:22;144414.31;;;1.75;80.57
26915;BME280;14480;52.608;13.416;2023-05-25T17:30:28;144419.28;;;1.77;81.23
26915;BME280;14480;52.608;13.416;2023-05-25T17:35:31;144479.09;;;2.01;81.57
26915;BME280;14480;52.608;13.416;2023-05-25T17:40:36;144470.38;;;1.98;81.80
26915;BME280;14480;52.608;13.416;2023-05-25T17:45:40;144400.56;;;1.69;82.88
26915;BME280;14480;52.608;13.416;2023-05-25T17:50:47;144353.22;;;1.50;82.53
26915;BME280;14480;52.608;13.416;2023-05-25T17:55:52;144303.44;;;1.30;83.17
26915;BME280;14480;52.608;13.416;2023-05-25T18:00:56;144320.84;;;1.37;83.63
26915;BME280;14480;52.608;13.416;2023-05-25T18:06:00;144303.44;;;1.30;84.23
26915;BME280;14480;52.608;13.416;2023-05-25T18:11:05;144206.28;;;0.90;85.78
26915;BME280;14480;52.608;13.416;2023-05-25T18:16:09;144162.72;;;0.72;86.99
26915;BME280;14480;52.608;13.416;2023-05-25T18:21:22;144121.63;;;0.55;88.71
26915;BME280;14480;52.608;13.416;2023-05-25T18:26:29;144097.97;;;0.46;89.31
26915;BME280;14480;52.608;13.416;2023-05-25T18:31:32;144053.19;;;0.27;90.55
26915;BME280;14480;52.608;13.416;2023-05-25T18:36:36;144043.25;;;0.23;91.62
26915;BME280;14480;52.608;13.416;2023-05-25T18:41:41;144040.72;;;0.22;91.92
26915;BME280;14480;52.608;13.416;2023-05-25T18:46:45;144000.91;;;0.06;92.61
26915;BME280;14480;52.608;13.416;2023-05-25T18:51:51;143978.50;;;-0.03;93.88
26915;BME280;14480;52.608;13.416;2023-05-25T18:56:56;143938.72;;;-0.19;95.92
26915;BME280;14480;52.608;13.416;2023-05-25T19:02:00;143902.66;;;-0.34;97.31
26915;BME280;14480;52.608;13.416;2023-05-25T19:07:06;143872.81;;;-0.46;99.58
26915;BME280;14480;52.608;13.416;2023-05-25T19:12:11;143820.59;;;-0.68;100.00
26915;BME280;14480;52.608;13.416;2023-05-25T19:17:25;143770.84;;;-0.88;100.00
26915;BME280;14480;52.608;13.416;2023-05-25T19:22:31;143743.47;;;-0.99;100.00
26915;BME280;14480;52.608;13.416;2023-05-25T19:27:37;143708.69;;;-1.13;100.00
26915;BME280;14480;52.608;13.416;2023-05-25T19:32:41;143676.38;;;-1.27;100.00
26915;BME280;14480;52.608;13.416;2023-05-25T19:37:45;143641.56;;;-1.41;100.00
26915;BME280;14480;52.608;13.416;2023-05-25T19:42:50;143611.72;;;-1.53;100.00
26915;BME280;14480;52.608;13.416;2023-05-25T19:48:03;143595.59;;;-1.60;100.00
26915;BME280;14480;52.608;13.416;2023-05-25T19:53:09;143564.56;;;-1.72;100.00
26915;BME280;14480;52.608;13.416;2023-05-25T19:58:14;143535.97;;;-1.84;100.00
26915;BME280;14480;52.608;13.416;2023-05-25T20:03:18;143518.56;;;-1.91;100.00
26915;BME280;14480;52.608;13.416;2023-05-25T20:08:23;143490.00;;;-2.03;100.00
26915;BME280;14480;52.608;13.416;2023-05-25T20:13:31;143454.00;;;-2.18;100.00
26915;BME280;14480;52.608;13.416;2023-05-25T20:18:35;143417.97;;;-2.32;100.00
26915;BME280;14480;52.608;13.416;2023-05-25T20:23:38;143398.13;;;-2.41;100.00
26915;BME280;14480;52.608;13.416;2023-05-25T20:28:43;143349.69;;;-2.60;100.00
26915;BME280;14480;52.608;13.416;2023-05-25T20:33:53;143319.91;;;-2.73;100.00
26915;BME280;14480;52.608;13.416;2023-05-25T20:38:57;143293.84;;;-2.83;100.00
26915;BME280;14480;52.608;13.416;2023-05-25T20:44:03;143273.97;;;-2.91;100.00
26915;BME280;14480;52.608;13.416;2023-05-25T20:49:07;143249.16;;;-3.02;100.00
26915;BME280;14480;52.608;13.416;2023-05-25T20:54:12;143224.38;;;-3.12;100.00
26915;BME280;14480;52.608;13.416;2023-05-25T20:59:20;143199.53;;;-3.22;100.00
26915;BME280;14480;52.608;13.416;2023-05-25T21:04:26;143180.94;;;-3.30;100.00
26915;BME280;14480;52.608;13.416;2023-05-25T21:09:32;143161.06;;;-3.38;100.00
26915;BME280;14480;52.608;13.416;2023-05-25T21:14:38;143142.47;;;-3.45;100.00
26915;BME280;14480;52.608;13.416;2023-05-25T21:19:42;143136.25;;;-3.48;100.00
26915;BME280;14480;52.608;13.416;2023-05-25T21:24:47;143113.94;;;-3.57;100.00
